Wetterdaten: Woche 15.10.12 - 21.10.12 (KW42)
Datum Zeit Temp. Innen Temp. Aussen UV X Diff Temp. Feuchte Inne Feuchte Auss Sonnenschein Luftdruck Regen ab 0,1 Wind Sonnenschein T Regendauer Windben
15.10.2012 00:00 17,2 C 6,4 C 0,0 UV-I 0,0 C 52 % 92 % 0 % 997,2 hPa 0,0 l/m 0,0 km/h (0 Bft) 0,00 h 0,00 h 0,2 km/h (0 Bft)
15.10.2012 01:00 17,2 C 6,3 C 0,0 UV-I 0,0 C 53 % 93 % 0 % 997,2 hPa 0,0 l/m 0,0 km/h (0 Bft) 0,00 h 0,00 h 0,0 km/h (0 Bft)
15.10.2012 02:00 17,1 C 6,3 C 0,0 UV-I 0,0 C 52 % 93 % 0 % 997,2 hPa 0,0 l/m 0,1 km/h (0 Bft) 0,00 h 0,00 h 0,6 km/h (0 Bft)
15.10.2012 03:00 17,0 C 6,1 C 0,0 UV-I 0,0 C 52 % 93 % 0 % 997,1 hPa 0,0 l/m 0,5 km/h (0 Bft) 0,00 h 0,00 h 1,1 km/h (1 Bft)
15.10.2012 04:00 16,9 C 6,0 C 0,0 UV-I 0,0 C 52 % 94 % 0 % 997,8 hPa 0,0 l/m 1,1 km/h (1 Bft) 0,00 h 0,00 h 2,6 km/h (1 Bft)
15.10.2012 05:00 16,9 C 6,5 C 0,0 UV-I 0,0 C 52 % 95 % 0 % 998,6 hPa 0,0 l/m 1,3 km/h (1 Bft) 0,00 h 0,00 h 2,3 km/h (1 Bft)
15.10.2012 06:00 16,8 C 7,0 C 0,0 UV-I 0,0 C 53 % 95 % 0 % 999,1 hPa 0,0 l/m 3,0 km/h (1 Bft) 0,00 h 0,00 h 5,5 km/h (1 Bft)
15.10.2012 07:00 16,8 C 7,3 C 0,0 UV-I 0,0 C 53 % 95 % 0 % 999,6 hPa 0,0 l/m 2,3 km/h (1 Bft) 0,00 h 0,13 h 3,2 km/h (1 Bft)
15.10.2012 08:00 16,9 C 7,6 C 0,0 UV-I 0,0 C 54 % 96 % 0 % 1000,7 hPa 0,0 l/m 1,8 km/h (1 Bft) 0,00 h 0,20 h 2,5 km/h (1 Bft)
15.10.2012 09:00 17,0 C 7,9 C 0,0 UV-I 0,0 C 54 % 96 % 1 % 1001,5 hPa 0,0 l/m 1,7 km/h (1 Bft) 0,00 h 0,10 h 3,2 km/h (1 Bft)
15.10.2012 10:00 17,1 C 8,7 C 0,1 UV-I 1,8 C 55 % 97 % 50 % 1002,7 hPa 0,0 l/m 2,7 km/h (1 Bft) 0,17 h 0,00 h 5,0 km/h (1 Bft)
15.10.2012 11:00 17,3 C 10,3 C 0,9 UV-I 6,3 C 55 % 93 % 95 % 1003,7 hPa 0,0 l/m 3,8 km/h (1 Bft) 0,87 h 0,00 h 6,0 km/h (2 Bft)
15.10.2012 12:00 17,5 C 12,3 C 2,2 UV-I 8,0 C 53 % 80 % 100 % 1004,4 hPa 0,0 l/m 5,8 km/h (2 Bft) 0,97 h 0,00 h 10,8 km/h (2 Bft)
15.10.2012 13:00 18,3 C 13,1 C 2,5 UV-I 5,5 C 51 % 69 % 100 % 1005,0 hPa 0,0 l/m 6,1 km/h (2 Bft) 1,00 h 0,00 h 9,5 km/h (2 Bft)
15.10.2012 14:00 20,0 C 13,9 C 2,8 UV-I 6,5 C 46 % 63 % 100 % 1006,8 hPa 0,0 l/m 5,6 km/h (1 Bft) 1,00 h 0,00 h 9,7 km/h (2 Bft)
15.10.2012 15:00 21,2 C 14,0 C 1,7 UV-I 5,0 C 42 % 63 % 92 % 1006,1 hPa 0,0 l/m 3,7 km/h (1 Bft) 0,73 h 0,00 h 5,3 km/h (1 Bft)
15.10.2012 16:00 21,4 C 13,4 C 0,6 UV-I 2,8 C 42 % 66 % 74 % 1005,5 hPa 0,0 l/m 4,8 km/h (1 Bft) 0,63 h 0,00 h 7,5 km/h (2 Bft)
15.10.2012 17:00 21,1 C 12,5 C 0,1 UV-I 1,2 C 42 % 66 % 34 % 1005,5 hPa 0,0 l/m 4,2 km/h (1 Bft) 0,33 h 0,00 h 5,8 km/h (2 Bft)
15.10.2012 18:00 20,2 C 11,3 C 0,0 UV-I 0,0 C 42 % 70 % 0 % 1006,3 hPa 0,0 l/m 1,9 km/h (1 Bft) 0,00 h 0,00 h 3,7 km/h (1 Bft)
15.10.2012 19:00 19,1 C 10,8 C 0,0 UV-I 0,0 C 44 % 74 % 0 % 1006,6 hPa 0,0 l/m 3,7 km/h (1 Bft) 0,00 h 0,00 h 5,6 km/h (1 Bft)
15.10.2012 20:00 18,5 C 10,8 C 0,0 UV-I 0,0 C 46 % 75 % 0 % 1006,9 hPa 0,0 l/m 4,8 km/h (1 Bft) 0,00 h 0,00 h 6,7 km/h (2 Bft)
15.10.2012 21:00 18,2 C 10,8 C 0,0 UV-I 0,0 C 47 % 77 % 0 % 1007,1 hPa 0,0 l/m 4,6 km/h (1 Bft) 0,00 h 0,00 h 7,1 km/h (2 Bft)
15.10.2012 22:00 18,1 C 10,6 C 0,0 UV-I 0,0 C 48 % 80 % 0 % 1007,2 hPa 0,0 l/m 4,9 km/h (1 Bft) 0,00 h 0,00 h 5,5 km/h (1 Bft)
15.10.2012 23:00 17,9 C 10,2 C 0,0 UV-I 0,0 C 49 % 82 % 0 % 1007,4 hPa 0,0 l/m 3,1 km/h (1 Bft) 0,00 h 0,00 h 4,1 km/h (1 Bft)
16.10.2012 00:00 17,8 C 9,7 C 0,0 UV-I 0,0 C 50 % 85 % 0 % 1007,4 hPa 0,0 l/m 3,0 km/h (1 Bft) 0,00 h 0,00 h 5,2 km/h (1 Bft)
16.10.2012 01:00 17,7 C 9,2 C 0,0 UV-I 0,0 C 51 % 87 % 0 % 1007,2 hPa 0,0 l/m 1,9 km/h (1 Bft) 0,00 h 0,00 h 4,0 km/h (1 Bft)
16.10.2012 02:00 17,6 C 9,0 C 0,0 UV-I 0,0 C 51 % 88 % 0 % 1007,3 hPa 0,0 l/m 2,4 km/h (1 Bft) 0,00 h 0,00 h 4,3 km/h (1 Bft)
16.10.2012 03:00 17,6 C 8,4 C 0,0 UV-I 0,0 C 52 % 89 % 0 % 1007,0 hPa 0,0 l/m 2,3 km/h (1 Bft) 0,00 h 0,00 h 3,9 km/h (1 Bft)
16.10.2012 04:00 17,5 C 8,1 C 0,0 UV-I 0,0 C 52 % 89 % 0 % 1006,7 hPa 0,0 l/m 4,4 km/h (1 Bft) 0,00 h 0,00 h 7,3 km/h (2 Bft)
16.10.2012 05:00 17,4 C 7,5 C 0,0 UV-I 0,0 C 51 % 89 % 0 % 1006,8 hPa 0,0 l/m 4,6 km/h (1 Bft) 0,00 h 0,00 h 7,1 km/h (2 Bft)
16.10.2012 06:00 17,2 C 6,8 C 0,0 UV-I 0,0 C 51 % 91 % 0 % 1006,0 hPa 0,0 l/m 8,1 km/h (2 Bft) 0,00 h 0,00 h 11,3 km/h (2 Bft)
16.10.2012 07:00 17,1 C 6,6 C 0,0 UV-I 0,0 C 51 % 92 % 0 % 1005,4 hPa 0,0 l/m 9,1 km/h (2 Bft) 0,00 h 0,00 h 12,3 km/h (3 Bft)
16.10.2012 08:00 17,0 C 6,8 C 0,0 UV-I 0,0 C 51 % 93 % 1 % 1005,1 hPa 0,0 l/m 9,5 km/h (2 Bft) 0,00 h 0,00 h 13,5 km/h (3 Bft)
16.10.2012 09:00 17,1 C 7,6 C 0,0 UV-I 0,0 C 51 % 92 % 1 % 1005,1 hPa 0,0 l/m 9,1 km/h (2 Bft) 0,00 h 0,37 h 12,8 km/h (3 Bft)
16.10.2012 10:00 17,2 C 8,2 C 0,0 UV-I 0,0 C 52 % 92 % 0 % 1004,8 hPa 0,9 l/m 10,3 km/h (2 Bft) 0,00 h 0,83 h 14,1 km/h (3 Bft)
16.10.2012 11:00 17,2 C 8,1 C 0,0 UV-I 0,0 C 53 % 94 % 0 % 1004,5 hPa 1,6 l/m 9,7 km/h (2 Bft) 0,00 h 0,30 h 13,4 km/h (3 Bft)
16.10.2012 12:00 17,2 C 8,0 C 0,0 UV-I 0,0 C 54 % 95 % 0 % 1004,9 hPa 1,0 l/m 6,4 km/h (2 Bft) 0,00 h 0,70 h 9,5 km/h (2 Bft)
16.10.2012 13:00 17,2 C 8,8 C 0,2 UV-I 0,2 C 55 % 96 % 5 % 1005,3 hPa 0,5 l/m 4,6 km/h (1 Bft) 0,00 h 0,70 h 6,8 km/h (2 Bft)
16.10.2012 14:00 18,0 C 11,0 C 1,7 UV-I 2,5 C 56 % 95 % 68 % 1005,9 hPa 0,0 l/m 7,1 km/h (2 Bft) 0,23 h 0,00 h 10,3 km/h (2 Bft)
16.10.2012 15:00 20,0 C 12,9 C 1,6 UV-I 4,5 C 51 % 88 % 100 % 1005,8 hPa 0,0 l/m 8,5 km/h (2 Bft) 1,00 h 0,00 h 11,9 km/h (2 Bft)
16.10.2012 16:00 21,0 C 13,3 C 0,6 UV-I 3,0 C 49 % 83 % 79 % 1005,6 hPa 0,0 l/m 6,2 km/h (2 Bft) 0,57 h 0,00 h 8,9 km/h (2 Bft)
16.10.2012 17:00 20,6 C 12,5 C 0,0 UV-I 0,2 C 48 % 83 % 7 % 1005,7 hPa 0,0 l/m 4,8 km/h (1 Bft) 0,00 h 0,00 h 7,0 km/h (2 Bft)
16.10.2012 18:00 19,6 C 12,1 C 0,0 UV-I 0,0 C 49 % 84 % 0 % 1006,0 hPa 0,0 l/m 5,3 km/h (1 Bft) 0,00 h 0,00 h 7,7 km/h (2 Bft)
16.10.2012 19:00 18,7 C 11,6 C 0,0 UV-I 0,0 C 52 % 85 % 0 % 1007,0 hPa 0,0 l/m 2,9 km/h (1 Bft) 0,00 h 0,00 h 5,1 km/h (1 Bft)
16.10.2012 20:00 18,2 C 11,1 C 0,0 UV-I 0,0 C 54 % 88 % 0 % 1007,8 hPa 0,0 l/m 3,7 km/h (1 Bft) 0,00 h 0,00 h 5,5 km/h (1 Bft)
16.10.2012 21:00 17,9 C 10,8 C 0,0 UV-I 0,0 C 55 % 89 % 0 % 1008,4 hPa 0,0 l/m 3,3 km/h (1 Bft) 0,00 h 0,00 h 5,0 km/h (1 Bft)
16.10.2012 22:00 17,8 C 10,3 C 0,0 UV-I 0,0 C 55 % 90 % 0 % 1009,0 hPa 0,0 l/m 1,6 km/h (1 Bft) 0,00 h 0,00 h 2,5 km/h (1 Bft)
16.10.2012 23:00 17,7 C 9,4 C 0,0 UV-I 0,0 C 55 % 91 % 0 % 1009,3 hPa 0,0 l/m 0,9 km/h (0 Bft) 0,00 h 0,00 h 1,5 km/h (1 Bft)
17.10.2012 00:00 17,6 C 8,5 C 0,0 UV-I 0,0 C 55 % 92 % 0 % 1009,8 hPa 0,0 l/m 0,9 km/h (0 Bft) 0,00 h 0,00 h 1,8 km/h (1 Bft)
17.10.2012 01:00 17,4 C 7,9 C 0,0 UV-I 0,0 C 55 % 94 % 0 % 1009,8 hPa 0,0 l/m 1,1 km/h (0 Bft) 0,00 h 0,00 h 2,8 km/h (1 Bft)
17.10.2012 02:00 17,3 C 7,7 C 0,0 UV-I 0,0 C 55 % 94 % 0 % 1009,9 hPa 0,0 l/m 1,6 km/h (1 Bft) 0,00 h 0,00 h 3,0 km/h (1 Bft)
17.10.2012 03:00 17,2 C 7,3 C 0,0 UV-I 0,0 C 55 % 94 % 0 % 1009,6 hPa 0,0 l/m 2,4 km/h (1 Bft) 0,00 h 0,00 h 4,0 km/h (1 Bft)
17.10.2012 04:00 17,2 C 6,7 C 0,0 UV-I 0,0 C 54 % 95 % 0 % 1009,0 hPa 0,0 l/m 4,1 km/h (1 Bft) 0,00 h 0,00 h 5,4 km/h (1 Bft)
17.10.2012 05:00 17,1 C 6,3 C 0,0 UV-I 0,0 C 54 % 95 % 0 % 1008,4 hPa 0,0 l/m 3,0 km/h (1 Bft) 0,00 h 0,00 h 4,7 km/h (1 Bft)
17.10.2012 06:00 17,0 C 6,9 C 0,0 UV-I 0,0 C 54 % 96 % 0 % 1007,8 hPa 0,0 l/m 6,6 km/h (2 Bft) 0,00 h 0,00 h 9,4 km/h (2 Bft)
17.10.2012 07:00 17,0 C 7,4 C 0,0 UV-I 0,0 C 54 % 96 % 0 % 1007,0 hPa 0,0 l/m 9,1 km/h (2 Bft) 0,00 h 0,00 h 15,5 km/h (3 Bft)
17.10.2012 08:00 17,0 C 8,0 C 0,0 UV-I 0,0 C 54 % 96 % 0 % 1006,7 hPa 0,1 l/m 11,0 km/h (2 Bft) 0,00 h 0,53 h 15,6 km/h (3 Bft)
17.10.2012 09:00 17,0 C 8,4 C 0,0 UV-I 0,0 C 55 % 96 % 0 % 1006,3 hPa 0,6 l/m 10,5 km/h (2 Bft) 0,00 h 0,80 h 14,0 km/h (3 Bft)
17.10.2012 10:00 17,1 C 9,1 C 0,0 UV-I 0,0 C 56 % 97 % 0 % 1006,4 hPa 1,0 l/m 11,2 km/h (2 Bft) 0,00 h 0,37 h 15,4 km/h (3 Bft)
17.10.2012 11:00 17,2 C 9,9 C 0,0 UV-I 0,0 C 57 % 97 % 0 % 1006,1 hPa 0,0 l/m 12,6 km/h (3 Bft) 0,00 h 0,00 h 16,4 km/h (3 Bft)
17.10.2012 12:00 17,4 C 11,0 C 0,0 UV-I 0,5 C 57 % 96 % 13 % 1005,8 hPa 0,0 l/m 11,2 km/h (2 Bft) 0,00 h 0,00 h 14,3 km/h (3 Bft)
17.10.2012 13:00 17,7 C 12,6 C 0,0 UV-I 1,3 C 58 % 94 % 38 % 1005,9 hPa 0,0 l/m 7,6 km/h (2 Bft) 0,00 h 0,00 h 9,2 km/h (2 Bft)
17.10.2012 14:00 17,9 C 14,1 C 0,0 UV-I 0,7 C 58 % 91 % 21 % 1006,0 hPa 0,0 l/m 6,7 km/h (2 Bft) 0,00 h 0,00 h 9,4 km/h (2 Bft)
17.10.2012 15:00 18,0 C 14,5 C 0,0 UV-I 0,5 C 58 % 88 % 13 % 1006,3 hPa 0,0 l/m 5,1 km/h (1 Bft) 0,00 h 0,00 h 7,5 km/h (2 Bft)
17.10.2012 16:00 18,1 C 14,6 C 0,0 UV-I 0,3 C 59 % 88 % 8 % 1006,3 hPa 0,0 l/m 6,5 km/h (2 Bft) 0,00 h 0,00 h 8,6 km/h (2 Bft)
17.10.2012 17:00 18,1 C 14,5 C 0,0 UV-I 0,0 C 59 % 88 % 0 % 1006,3 hPa 0,0 l/m 5,3 km/h (1 Bft) 0,00 h 0,13 h 7,6 km/h (2 Bft)
17.10.2012 18:00 18,1 C 14,7 C 0,0 UV-I 0,0 C 60 % 88 % 0 % 1006,3 hPa 0,0 l/m 6,9 km/h (2 Bft) 0,00 h 0,00 h 10,1 km/h (2 Bft)
17.10.2012 19:00 18,1 C 14,8 C 0,0 UV-I 0,0 C 61 % 88 % 0 % 1006,8 hPa 0,0 l/m 4,8 km/h (1 Bft) 0,00 h 0,00 h 6,9 km/h (2 Bft)
17.10.2012 20:00 18,1 C 14,7 C 0,0 UV-I 0,0 C 61 % 88 % 0 % 1006,7 hPa 0,0 l/m 5,1 km/h (1 Bft) 0,00 h 0,13 h 6,9 km/h (2 Bft)
17.10.2012 21:00 18,2 C 14,5 C 0,0 UV-I 0,0 C 61 % 88 % 0 % 1006,3 hPa 0,0 l/m 5,1 km/h (1 Bft) 0,00 h 0,00 h 7,1 km/h (2 Bft)
17.10.2012 22:00 18,2 C 14,4 C 0,0 UV-I 0,0 C 62 % 90 % 0 % 1006,1 hPa 0,0 l/m 6,4 km/h (2 Bft) 0,00 h 0,00 h 9,1 km/h (2 Bft)
17.10.2012 23:00 18,2 C 14,5 C 0,0 UV-I 0,0 C 62 % 90 % 0 % 1006,4 hPa 0,1 l/m 4,7 km/h (1 Bft) 0,00 h 0,07 h 6,2 km/h (2 Bft)
18.10.2012 00:00 18,3 C 14,2 C 0,0 UV-I 0,0 C 62 % 91 % 0 % 1006,6 hPa 0,0 l/m 0,8 km/h (0 Bft) 0,00 h 0,00 h 1,7 km/h (1 Bft)
18.10.2012 01:00 18,3 C 14,3 C 0,0 UV-I 0,0 C 62 % 92 % 0 % 1006,7 hPa 0,0 l/m 3,1 km/h (1 Bft) 0,00 h 0,00 h 5,2 km/h (1 Bft)
18.10.2012 02:00 18,4 C 14,5 C 0,0 UV-I 0,0 C 62 % 90 % 0 % 1006,8 hPa 0,0 l/m 4,9 km/h (1 Bft) 0,00 h 0,00 h 7,5 km/h (2 Bft)
18.10.2012 03:00 18,4 C 14,7 C 0,0 UV-I 0,0 C 62 % 89 % 0 % 1006,5 hPa 0,0 l/m 6,2 km/h (2 Bft) 0,00 h 0,00 h 8,4 km/h (2 Bft)
18.10.2012 04:00 18,4 C 15,1 C 0,0 UV-I 0,0 C 62 % 87 % 0 % 1006,1 hPa 0,0 l/m 6,3 km/h (2 Bft) 0,00 h 0,00 h 8,2 km/h (2 Bft)
18.10.2012 05:00 18,5 C 14,8 C 0,0 UV-I 0,0 C 62 % 88 % 0 % 1006,1 hPa 0,0 l/m 6,1 km/h (2 Bft) 0,00 h 0,00 h 8,6 km/h (2 Bft)
18.10.2012 06:00 18,5 C 15,1 C 0,0 UV-I 0,0 C 62 % 87 % 0 % 1005,9 hPa 0,0 l/m 6,4 km/h (2 Bft) 0,00 h 0,00 h 8,5 km/h (2 Bft)
18.10.2012 07:00 18,7 C 15,5 C 0,0 UV-I 0,0 C 61 % 85 % 0 % 1005,9 hPa 0,0 l/m 7,0 km/h (2 Bft) 0,00 h 0,00 h 9,3 km/h (2 Bft)
18.10.2012 08:00 19,0 C 15,6 C 0,0 UV-I 0,0 C 61 % 83 % 0 % 1006,4 hPa 0,0 l/m 6,5 km/h (2 Bft) 0,00 h 0,00 h 8,0 km/h (2 Bft)
18.10.2012 09:00 19,2 C 15,3 C 0,0 UV-I 0,2 C 60 % 85 % 5 % 1007,2 hPa 0,0 l/m 4,7 km/h (1 Bft) 0,00 h 0,23 h 7,2 km/h (2 Bft)
18.10.2012 10:00 19,4 C 16,2 C 0,4 UV-I 2,4 C 60 % 84 % 69 % 1007,5 hPa 0,0 l/m 4,9 km/h (1 Bft) 0,27 h 0,00 h 6,9 km/h (2 Bft)
18.10.2012 11:00 19,7 C 17,4 C 0,6 UV-I 2,7 C 59 % 81 % 70 % 1007,8 hPa 0,0 l/m 6,6 km/h (2 Bft) 0,37 h 0,00 h 8,9 km/h (2 Bft)
18.10.2012 12:00 20,2 C 19,5 C 1,7 UV-I 4,3 C 59 % 75 % 100 % 1007,8 hPa 0,0 l/m 5,8 km/h (2 Bft) 0,97 h 0,00 h 8,5 km/h (2 Bft)
18.10.2012 13:00 20,8 C 20,9 C 2,9 UV-I 5,2 C 57 % 68 % 100 % 1008,0 hPa 0,0 l/m 6,3 km/h (2 Bft) 1,00 h 0,00 h 9,1 km/h (2 Bft)
18.10.2012 14:00 22,0 C 22,4 C 3,1 UV-I 5,7 C 56 % 62 % 100 % 1009,4 hPa 0,0 l/m 8,0 km/h (2 Bft) 1,00 h 0,00 h 12,1 km/h (2 Bft)
18.10.2012 15:00 22,7 C 22,6 C 1,4 UV-I 3,6 C 53 % 62 % 91 % 1007,9 hPa 0,0 l/m 6,3 km/h (2 Bft) 0,80 h 0,00 h 9,4 km/h (2 Bft)
18.10.2012 16:00 23,2 C 22,9 C 0,7 UV-I 3,5 C 51 % 62 % 86 % 1007,3 hPa 0,0 l/m 4,7 km/h (1 Bft) 0,83 h 0,00 h 7,5 km/h (2 Bft)
18.10.2012 17:00 23,0 C 21,4 C 0,1 UV-I 0,9 C 51 % 68 % 27 % 1007,1 hPa 0,0 l/m 3,8 km/h (1 Bft) 0,40 h 0,00 h 6,4 km/h (2 Bft)
18.10.2012 18:00 22,3 C 19,5 C 0,0 UV-I 0,0 C 53 % 73 % 0 % 1007,5 hPa 0,0 l/m 1,3 km/h (1 Bft) 0,00 h 0,00 h 2,2 km/h (1 Bft)
18.10.2012 19:00 21,7 C 18,6 C 0,0 UV-I 0,0 C 55 % 76 % 0 % 1008,2 hPa 0,0 l/m 2,5 km/h (1 Bft) 0,00 h 0,00 h 4,0 km/h (1 Bft)
18.10.2012 20:00 21,3 C 17,9 C 0,0 UV-I 0,0 C 56 % 77 % 0 % 1008,5 hPa 0,0 l/m 1,4 km/h (1 Bft) 0,00 h 0,00 h 1,7 km/h (1 Bft)
18.10.2012 21:00 21,1 C 16,8 C 0,0 UV-I 0,0 C 57 % 80 % 0 % 1008,8 hPa 0,0 l/m 1,2 km/h (1 Bft) 0,00 h 0,00 h 2,5 km/h (1 Bft)
18.10.2012 22:00 20,9 C 16,0 C 0,0 UV-I 0,0 C 57 % 82 % 0 % 1009,1 hPa 0,0 l/m 1,2 km/h (1 Bft) 0,00 h 0,00 h 2,2 km/h (1 Bft)
18.10.2012 23:00 20,8 C 15,6 C 0,0 UV-I 0,0 C 57 % 83 % 0 % 1008,9 hPa 0,0 l/m 5,2 km/h (1 Bft) 0,00 h 0,00 h 8,3 km/h (2 Bft)
19.10.2012 00:00 20,8 C 15,9 C 0,0 UV-I 0,0 C 57 % 81 % 0 % 1008,9 hPa 0,0 l/m 6,3 km/h (2 Bft) 0,00 h 0,00 h 9,5 km/h (2 Bft)
19.10.2012 01:00 20,7 C 15,9 C 0,0 UV-I 0,0 C 57 % 80 % 0 % 1009,1 hPa 0,0 l/m 6,5 km/h (2 Bft) 0,00 h 0,00 h 9,2 km/h (2 Bft)
19.10.2012 02:00 20,6 C 15,4 C 0,0 UV-I 0,0 C 57 % 81 % 0 % 1009,1 hPa 0,0 l/m 2,2 km/h (1 Bft) 0,00 h 0,00 h 3,4 km/h (1 Bft)
19.10.2012 03:00 20,6 C 15,5 C 0,0 UV-I 0,0 C 57 % 81 % 0 % 1009,2 hPa 0,0 l/m 5,4 km/h (1 Bft) 0,00 h 0,00 h 8,1 km/h (2 Bft)
19.10.2012 04:00 20,5 C 15,4 C 0,0 UV-I 0,0 C 57 % 80 % 0 % 1009,4 hPa 0,0 l/m 6,4 km/h (2 Bft) 0,00 h 0,00 h 8,6 km/h (2 Bft)
19.10.2012 05:00 20,5 C 15,0 C 0,0 UV-I 0,0 C 57 % 81 % 0 % 1009,2 hPa 0,0 l/m 5,1 km/h (1 Bft) 0,00 h 0,00 h 6,7 km/h (2 Bft)
19.10.2012 06:00 20,4 C 14,7 C 0,0 UV-I 0,0 C 57 % 83 % 0 % 1009,4 hPa 0,0 l/m 7,5 km/h (2 Bft) 0,00 h 0,00 h 10,2 km/h (2 Bft)
19.10.2012 07:00 20,3 C 14,7 C 0,0 UV-I 0,0 C 57 % 82 % 0 % 1009,3 hPa 0,0 l/m 8,0 km/h (2 Bft) 0,00 h 0,00 h 10,7 km/h (2 Bft)
19.10.2012 08:00 20,2 C 14,2 C 0,0 UV-I 0,0 C 57 % 84 % 0 % 1009,5 hPa 0,0 l/m 7,0 km/h (2 Bft) 0,00 h 0,00 h 9,1 km/h (2 Bft)
19.10.2012 09:00 20,3 C 14,9 C 0,1 UV-I 1,6 C 57 % 83 % 44 % 1009,8 hPa 0,0 l/m 5,9 km/h (2 Bft) 0,40 h 0,00 h 8,2 km/h (2 Bft)
19.10.2012 10:00 20,4 C 17,0 C 0,5 UV-I 4,3 C 57 % 79 % 100 % 1010,2 hPa 0,0 l/m 8,3 km/h (2 Bft) 1,00 h 0,00 h 11,1 km/h (2 Bft)
19.10.2012 11:00 20,7 C 18,8 C 0,9 UV-I 4,9 C 57 % 73 % 100 % 1010,4 hPa 0,0 l/m 7,5 km/h (2 Bft) 1,00 h 0,00 h 9,3 km/h (2 Bft)
19.10.2012 12:00 21,0 C 20,2 C 1,4 UV-I 4,3 C 57 % 69 % 100 % 1010,5 hPa 0,0 l/m 8,6 km/h (2 Bft) 1,00 h 0,00 h 11,9 km/h (2 Bft)
19.10.2012 13:00 21,6 C 21,0 C 1,5 UV-I 3,2 C 56 % 68 % 90 % 1010,4 hPa 0,0 l/m 7,0 km/h (2 Bft) 0,80 h 0,00 h 8,3 km/h (2 Bft)
19.10.2012 14:00 22,1 C 21,8 C 1,1 UV-I 2,7 C 55 % 66 % 78 % 1010,9 hPa 0,0 l/m 7,1 km/h (2 Bft) 0,57 h 0,00 h 9,9 km/h (2 Bft)
19.10.2012 15:00 22,7 C 22,5 C 0,9 UV-I 2,6 C 54 % 64 % 74 % 1010,7 hPa 0,0 l/m 5,9 km/h (2 Bft) 0,27 h 0,00 h 7,6 km/h (2 Bft)
19.10.2012 16:00 23,1 C 22,8 C 0,3 UV-I 1,7 C 53 % 65 % 50 % 1010,4 hPa 0,0 l/m 1,8 km/h (1 Bft) 0,00 h 0,00 h 2,9 km/h (1 Bft)
19.10.2012 17:00 22,9 C 21,9 C 0,0 UV-I 0,5 C 53 % 68 % 13 % 1010,5 hPa 0,0 l/m 0,4 km/h (0 Bft) 0,00 h 0,00 h 0,8 km/h (0 Bft)
19.10.2012 18:00 22,4 C 20,0 C 0,0 UV-I 0,0 C 54 % 74 % 0 % 1010,9 hPa 0,0 l/m 0,1 km/h (0 Bft) 0,00 h 0,00 h 0,3 km/h (0 Bft)
19.10.2012 19:00 21,9 C 17,9 C 0,0 UV-I 0,0 C 56 % 80 % 0 % 1011,4 hPa 0,0 l/m 0,0 km/h (0 Bft) 0,00 h 0,00 h 0,0 km/h (0 Bft)
19.10.2012 20:00 21,6 C 16,5 C 0,0 UV-I 0,0 C 57 % 85 % 0 % 1011,6 hPa 0,0 l/m 0,0 km/h (0 Bft) 0,00 h 0,00 h 0,0 km/h (0 Bft)
19.10.2012 21:00 21,3 C 15,6 C 0,0 UV-I 0,0 C 58 % 87 % 0 % 1012,0 hPa 0,0 l/m 0,0 km/h (0 Bft) 0,00 h 0,00 h 0,0 km/h (0 Bft)
19.10.2012 22:00 21,2 C 15,4 C 0,0 UV-I 0,0 C 59 % 89 % 0 % 1012,5 hPa 0,0 l/m 0,5 km/h (0 Bft) 0,00 h 0,00 h 0,5 km/h (0 Bft)
19.10.2012 23:00 21,1 C 15,3 C 0,0 UV-I 0,0 C 59 % 88 % 0 % 1012,6 hPa 0,0 l/m 0,5 km/h (0 Bft) 0,00 h 0,00 h 1,7 km/h (1 Bft)
20.10.2012 00:00 21,0 C 15,2 C 0,0 UV-I 0,0 C 59 % 87 % 0 % 1012,5 hPa 0,0 l/m 2,2 km/h (1 Bft) 0,00 h 0,00 h 4,0 km/h (1 Bft)
20.10.2012 01:00 21,0 C 15,4 C 0,0 UV-I 0,0 C 59 % 86 % 0 % 1012,4 hPa 0,0 l/m 4,3 km/h (1 Bft) 0,00 h 0,00 h 7,6 km/h (2 Bft)
20.10.2012 02:00 21,0 C 15,7 C 0,0 UV-I 0,0 C 59 % 86 % 0 % 1012,3 hPa 0,0 l/m 4,8 km/h (1 Bft) 0,00 h 0,00 h 6,0 km/h (2 Bft)
20.10.2012 03:00 20,9 C 15,8 C 0,0 UV-I 0,0 C 59 % 86 % 0 % 1012,4 hPa 0,0 l/m 7,3 km/h (2 Bft) 0,00 h 0,00 h 11,4 km/h (2 Bft)
20.10.2012 04:00 20,9 C 15,9 C 0,0 UV-I 0,0 C 59 % 85 % 0 % 1012,4 hPa 0,0 l/m 6,7 km/h (2 Bft) 0,00 h 0,00 h 8,5 km/h (2 Bft)
20.10.2012 05:00 20,8 C 15,5 C 0,0 UV-I 0,0 C 59 % 86 % 0 % 1012,8 hPa 0,0 l/m 2,5 km/h (1 Bft) 0,00 h 0,00 h 2,9 km/h (1 Bft)
20.10.2012 06:00 20,8 C 14,7 C 0,0 UV-I 0,0 C 59 % 87 % 0 % 1013,4 hPa 0,0 l/m 0,0 km/h (0 Bft) 0,00 h 0,00 h 0,0 km/h (0 Bft)
20.10.2012 07:00 20,7 C 14,3 C 0,0 UV-I 0,1 C 60 % 90 % 0 % 1014,3 hPa 0,0 l/m 0,0 km/h (0 Bft) 0,00 h 0,00 h 0,0 km/h (0 Bft)
20.10.2012 08:00 20,8 C 14,8 C 0,0 UV-I 0,3 C 60 % 91 % 6 % 1014,8 hPa 0,0 l/m 0,0 km/h (0 Bft) 0,13 h 0,00 h 0,2 km/h (0 Bft)
20.10.2012 09:00 20,8 C 15,4 C 0,0 UV-I 0,4 C 60 % 91 % 11 % 1015,7 hPa 0,0 l/m 0,1 km/h (0 Bft) 0,00 h 0,00 h 0,3 km/h (0 Bft)
20.10.2012 10:00 20,9 C 16,4 C 0,0 UV-I 0,9 C 60 % 90 % 26 % 1016,3 hPa 0,0 l/m 0,2 km/h (0 Bft) 0,00 h 0,00 h 0,5 km/h (0 Bft)
20.10.2012 11:00 21,1 C 17,7 C 0,0 UV-I 0,7 C 60 % 88 % 20 % 1016,5 hPa 0,0 l/m 0,0 km/h (0 Bft) 0,00 h 0,00 h 0,0 km/h (0 Bft)
20.10.2012 12:00 21,2 C 18,0 C 0,0 UV-I 0,9 C 60 % 87 % 26 % 1017,0 hPa 0,0 l/m 0,2 km/h (0 Bft) 0,00 h 0,00 h 0,8 km/h (0 Bft)
20.10.2012 13:00 21,4 C 18,2 C 0,1 UV-I 1,0 C 60 % 87 % 28 % 1017,5 hPa 0,0 l/m 1,0 km/h (0 Bft) 0,00 h 0,00 h 1,0 km/h (0 Bft)
20.10.2012 14:00 21,6 C 18,7 C 0,4 UV-I 2,1 C 60 % 86 % 59 % 1017,3 hPa 0,0 l/m 0,9 km/h (0 Bft) 0,00 h 0,00 h 1,9 km/h (1 Bft)
20.10.2012 15:00 21,7 C 18,7 C 0,1 UV-I 0,9 C 60 % 85 % 26 % 1017,2 hPa 0,0 l/m 0,3 km/h (0 Bft) 0,00 h 0,00 h 0,4 km/h (0 Bft)
20.10.2012 16:00 21,6 C 18,5 C 0,0 UV-I 0,4 C 60 % 87 % 13 % 1017,4 hPa 0,0 l/m 2,1 km/h (1 Bft) 0,00 h 0,00 h 3,0 km/h (1 Bft)
20.10.2012 17:00 21,6 C 18,2 C 0,0 UV-I 0,1 C 60 % 88 % 4 % 1016,7 hPa 0,0 l/m 2,2 km/h (1 Bft) 0,00 h 0,00 h 2,7 km/h (1 Bft)
20.10.2012 18:00 21,6 C 17,7 C 0,0 UV-I 0,0 C 61 % 89 % 0 % 1017,0 hPa 0,0 l/m 0,1 km/h (0 Bft) 0,00 h 0,00 h 0,3 km/h (0 Bft)
20.10.2012 19:00 21,5 C 17,2 C 0,0 UV-I 0,0 C 61 % 90 % 0 % 1017,3 hPa 0,0 l/m 0,0 km/h (0 Bft) 0,00 h 0,00 h 0,0 km/h (0 Bft)
20.10.2012 20:00 21,4 C 17,0 C 0,0 UV-I 0,0 C 62 % 91 % 0 % 1017,0 hPa 0,0 l/m 0,4 km/h (0 Bft) 0,00 h 0,00 h 0,9 km/h (0 Bft)
20.10.2012 21:00 21,3 C 16,7 C 0,0 UV-I 0,0 C 62 % 91 % 0 % 1016,8 hPa 0,0 l/m 0,5 km/h (0 Bft) 0,00 h 0,00 h 0,4 km/h (0 Bft)
20.10.2012 22:00 21,2 C 15,5 C 0,0 UV-I 0,0 C 62 % 92 % 0 % 1016,9 hPa 0,0 l/m 0,0 km/h (0 Bft) 0,00 h 0,00 h 0,0 km/h (0 Bft)
20.10.2012 23:00 21,1 C 14,4 C 0,0 UV-I 0,0 C 62 % 93 % 0 % 1016,7 hPa 0,0 l/m 0,0 km/h (0 Bft) 0,00 h 0,00 h 0,0 km/h (0 Bft)
21.10.2012 00:00 20,8 C 13,5 C 0,0 UV-I 0,0 C 63 % 94 % 0 % 1016,6 hPa 0,0 l/m 0,0 km/h (0 Bft) 0,00 h 0,00 h 0,0 km/h (0 Bft)
21.10.2012 01:00 20,6 C 13,2 C 0,0 UV-I 0,0 C 63 % 95 % 0 % 1016,3 hPa 0,0 l/m 0,0 km/h (0 Bft) 0,00 h 0,00 h 0,0 km/h (0 Bft)
21.10.2012 02:00 20,4 C 13,3 C 0,0 UV-I 0,0 C 64 % 96 % 0 % 1015,6 hPa 0,0 l/m 0,0 km/h (0 Bft) 0,00 h 0,00 h 0,0 km/h (0 Bft)
21.10.2012 03:00 20,4 C 13,5 C 0,0 UV-I 0,0 C 64 % 96 % 0 % 1015,2 hPa 0,0 l/m 0,0 km/h (0 Bft) 0,00 h 0,00 h 0,0 km/h (0 Bft)
21.10.2012 04:00 20,3 C 13,2 C 0,0 UV-I 0,0 C 64 % 97 % 0 % 1014,6 hPa 0,0 l/m 0,0 km/h (0 Bft) 0,00 h 0,00 h 0,0 km/h (0 Bft)
21.10.2012 05:00 20,2 C 12,5 C 0,0 UV-I 0,0 C 64 % 97 % 0 % 1014,8 hPa 0,0 l/m 0,0 km/h (0 Bft) 0,00 h 0,00 h 0,0 km/h (0 Bft)
21.10.2012 06:00 20,1 C 12,8 C 0,0 UV-I 0,0 C 64 % 98 % 0 % 1014,8 hPa 0,0 l/m 0,3 km/h (0 Bft) 0,00 h 0,00 h 0,9 km/h (0 Bft)
21.10.2012 07:00 20,2 C 13,3 C 0,0 UV-I 0,0 C 64 % 98 % 0 % 1014,9 hPa 0,0 l/m 0,7 km/h (0 Bft) 0,00 h 0,00 h 1,3 km/h (1 Bft)
21.10.2012 08:00 20,1 C 12,8 C 0,0 UV-I 0,0 C 64 % 98 % 0 % 1015,5 hPa 0,0 l/m 0,0 km/h (0 Bft) 0,00 h 0,00 h 0,0 km/h (0 Bft)
21.10.2012 09:00 20,1 C 12,9 C 0,0 UV-I 0,3 C 64 % 98 % 8 % 1016,2 hPa 0,0 l/m 0,0 km/h (0 Bft) 0,00 h 0,00 h 0,0 km/h (0 Bft)
21.10.2012 10:00 20,3 C 14,2 C 0,2 UV-I 6,1 C 64 % 99 % 91 % 1016,4 hPa 0,0 l/m 0,1 km/h (0 Bft) 0,83 h 0,00 h 1,0 km/h (0 Bft)
21.10.2012 11:00 20,7 C 17,3 C 0,7 UV-I 7,3 C 63 % 94 % 100 % 1015,8 hPa 0,0 l/m 3,3 km/h (1 Bft) 1,00 h 0,00 h 4,4 km/h (1 Bft)
21.10.2012 12:00 21,1 C 20,2 C 1,5 UV-I 8,8 C 62 % 85 % 100 % 1015,6 hPa 0,0 l/m 0,8 km/h (0 Bft) 1,00 h 0,00 h 1,8 km/h (1 Bft)
21.10.2012 13:00 21,9 C 22,6 C 2,5 UV-I 6,4 C 61 % 72 % 100 % 1015,7 hPa 0,0 l/m 2,4 km/h (1 Bft) 1,00 h 0,00 h 4,7 km/h (1 Bft)
21.10.2012 14:00 22,4 C 22,6 C 0,6 UV-I 0,9 C 59 % 69 % 27 % 1015,6 hPa 0,0 l/m 1,5 km/h (1 Bft) 0,03 h 0,00 h 3,9 km/h (1 Bft)
21.10.2012 15:00 22,5 C 22,3 C 0,7 UV-I 1,9 C 59 % 67 % 54 % 1015,0 hPa 0,0 l/m 2,3 km/h (1 Bft) 0,10 h 0,00 h 2,7 km/h (1 Bft)
21.10.2012 16:00 23,5 C 23,6 C 0,5 UV-I 4,2 C 57 % 65 % 99 % 1014,3 hPa 0,0 l/m 2,0 km/h (1 Bft) 1,00 h 0,00 h 2,6 km/h (1 Bft)
21.10.2012 17:00 23,8 C 22,1 C 0,1 UV-I 1,7 C 55 % 69 % 46 % 1014,6 hPa 0,0 l/m 0,0 km/h (0 Bft) 0,50 h 0,00 h 0,0 km/h (0 Bft)
21.10.2012 18:00 23,2 C 19,6 C 0,0 UV-I 0,0 C 56 % 77 % 0 % 1014,9 hPa 0,0 l/m 0,0 km/h (0 Bft) 0,00 h 0,00 h 0,0 km/h (0 Bft)
21.10.2012 19:00 22,5 C 17,6 C 0,0 UV-I 0,0 C 58 % 85 % 0 % 1015,6 hPa 0,0 l/m 0,0 km/h (0 Bft) 0,00 h 0,00 h 0,0 km/h (0 Bft)
21.10.2012 20:00 22,1 C 16,7 C 0,0 UV-I 0,0 C 60 % 89 % 0 % 1015,7 hPa 0,0 l/m 0,0 km/h (0 Bft) 0,00 h 0,00 h 0,0 km/h (0 Bft)
21.10.2012 21:00 21,8 C 15,6 C 0,0 UV-I 0,0 C 61 % 89 % 0 % 1016,2 hPa 0,0 l/m 0,0 km/h (0 Bft) 0,00 h 0,00 h 0,0 km/h (0 Bft)
21.10.2012 22:00 21,6 C 14,5 C 0,0 UV-I 0,0 C 61 % 91 % 0 % 1016,5 hPa 0,0 l/m 0,0 km/h (0 Bft) 0,00 h 0,00 h 0,0 km/h (0 Bft)
21.10.2012 23:00 21,4 C 13,9 C 0,0 UV-I 0,0 C 61 % 92 % 0 % 1016,8 hPa 0,0 l/m 0,2 km/h (0 Bft) 0,00 h 0,00 h 0,7 km/h (0 Bft)
Min-Datum _ 15.10.12 15.10.12 15.10.12 15.10.12 15.10.12 18.10.12 15.10.12 15.10.12 - 15.10.12 - - 15.10.12
_ Min-Zeit 06:26 03:56 00:00 00:00 16:38 14:56 00:00 00:00 - 00:00 - - 00:02
Minimum _ 16,8 C 5,9 C 0,0 UV-I 0,0 C 41 % 59 % 0 % 997,1 hPa - 0,0 km/h (0 Bft) - - 0,0 km/h (0 Bft)
Max-Datum _ 21.10.12 21.10.12 15.10.12 21.10.12 21.10.12 21.10.12 15.10.12 20.10.12 16.10.12 17.10.12 15.10.12 15.10.12 17.10.12
_ Max-Zeit 16:54 16:24 13:34 12:10 02:04 10:08 10:22 13:26 11:04 10:18 10:20 07:00 12:30
Maximum _ 24,0 C 23,9 C 4,0 UV-I 9,7 C 64 % 99 % 100 % 1017,8 hPa 1,6 l/m 14,9 km/h
SO (3 Bft)
0,03 h 0,03 h 37,3 km/h
O-SO (5 Bft)
Durchschnitt _ 19,7 C 14,0 C 0,2 UV-I 0,9 C 56 % 86 % 19 % 1009,3 hPa #5,8 l/m 3,7 km/h (1 Bft) #23:46 h #5:36 h 5,4 km/h (1 Bft)
© 2012 W. Hausmann